Orchid, Florida
Current Conditions -  °F | °C
As of 8:53 AM on Thursday 23 Oct 2014 (Local Time) from KVRB Reporting Station
Few Clouds Few Clouds  
Wind Chill: 72°   Ceiling: Unl
Heat Index: 72°   Visibility: 10mi
Dew Point: 62°   Wind: 8mph
Humidity: 71%   Direction: 40°NE
Pressure: 29.97"   Gusts: NA
Location:  27.7066°N, 80.3826°W
Report Text: KVRB 231253Z 04007KT 10SM FEW034 22/17 A2997 RMK AO2 SLP149 T02220167
Loading
Personal Weather Stations






























Interactive Weather Map
Tropical Storm Tracking
New forecast layout! Learn more

10-Day Weather Forecast

Advertisements
Track Severe Weather on mobile